Time;durP1;ratioP1;P1;durP2;ratioP2;P2;SDS_P1;SDS_P2;PMS_P1;PMS_P2;Temp;Humidity;BMP_temperature;BMP_pressure;BME280_temperature;BME280_humidity;BME280_pressure;Samples;Min_cycle;Max_cycle;Signal;HPM_P1;HPM_P2
2022/06/29 00:00:08;;;;;;;3.37;2.00;;;24.10;51.20;25.60;100797.00;;;;5068690;28;20211;-43
2022/06/29 00:02:34;;;;;;;2.10;1.90;;;24.10;51.10;25.60;100794.00;;;;5070562;28;20634;-43
2022/06/29 00:05:02;;;;;;;2.70;2.03;;;24.10;51.00;25.60;100789.00;;;;5070469;28;20308;-43
2022/06/29 00:07:27;;;;;;;2.20;2.00;;;24.00;50.90;25.60;100787.00;;;;5070147;28;20177;-43
2022/06/29 00:09:53;;;;;;;2.03;1.93;;;24.00;50.80;25.60;100790.00;;;;5070793;28;20170;-43
2022/06/29 00:12:19;;;;;;;2.53;2.00;;;24.00;51.00;25.60;100787.00;;;;5071129;28;20162;-42
2022/06/29 00:14:45;;;;;;;2.30;2.00;;;23.90;50.90;25.50;100788.00;;;;5072748;28;20701;-42
2022/06/29 00:17:13;;;;;;;3.53;2.07;;;23.90;51.20;25.50;100792.00;;;;5070637;28;20211;-43
2022/06/29 00:19:40;;;;;;;2.37;2.17;;;23.90;51.20;25.50;100784.00;;;;5070531;28;20174;-43
2022/06/29 00:22:06;;;;;;;2.57;2.10;;;23.80;51.00;25.50;100786.00;;;;5070328;28;20227;-43
2022/06/29 00:24:32;;;;;;;2.93;2.20;;;23.80;50.70;25.40;100789.00;;;;5068793;28;20205;-43
2022/06/29 00:26:58;;;;;;;2.57;1.87;;;23.80;50.50;25.40;100771.00;;;;5070186;28;20227;-43
2022/06/29 00:29:24;;;;;;;2.57;2.10;;;23.80;50.40;25.40;100772.00;;;;5069590;28;20166;-42
2022/06/29 00:31:50;;;;;;;2.40;1.90;;;23.80;50.30;25.30;100770.00;;;;5069928;28;20536;-44
2022/06/29 00:34:16;;;;;;;2.13;1.93;;;23.80;50.10;25.30;100783.00;;;;5069975;28;20185;-44
2022/06/29 00:36:41;;;;;;;2.20;2.00;;;23.80;49.90;25.30;100780.00;;;;5069966;28;20256;-42
2022/06/29 00:39:07;;;;;;;2.60;2.10;;;23.70;49.80;25.30;100770.00;;;;5068392;28;20718;-43
2022/06/29 00:41:44;;;;;;;2.73;2.00;;;23.80;49.80;25.30;100769.00;;;;5070085;28;20292;-44
2022/06/29 00:44:17;;;;;;;2.20;2.00;;;23.70;49.60;25.30;100772.00;;;;5069918;28;20173;-43
2022/06/29 00:47:03;;;;;;;1.90;1.80;;;23.70;49.60;25.30;100767.00;;;;5070048;28;20240;-44
2022/06/29 00:49:30;;;;;;;3.03;1.90;;;23.70;49.60;25.20;100780.00;;;;5069466;28;20158;-43
2022/06/29 00:52:09;;;;;;;2.50;1.90;;;23.60;49.60;25.20;100720.00;;;;5069589;28;20170;-43
2022/06/29 00:54:39;;;;;;;4.03;2.10;;;23.70;49.90;25.20;100772.00;;;;5070183;28;20557;-43
2022/06/29 00:57:19;;;;;;;2.43;2.13;;;23.70;50.00;25.20;100774.00;;;;5069508;28;20160;-43
2022/06/29 00:59:49;;;;;;;2.47;2.10;;;23.60;49.90;25.10;100774.00;;;;5068456;28;20173;-44
2022/06/29 01:02:20;;;;;;;2.67;2.33;;;23.60;49.60;25.10;100768.00;;;;5069399;28;20173;-42
2022/06/29 01:04:46;;;;;;;3.30;2.17;;;23.50;49.60;25.10;100769.00;;;;5070062;28;20196;-43
2022/06/29 01:07:16;;;;;;;2.53;2.03;;;23.60;49.60;25.10;100765.00;;;;5069873;28;20169;-43
2022/06/29 01:09:43;;;;;;;2.60;2.27;;;23.60;49.40;25.10;100768.00;;;;5069958;28;20584;-44
2022/06/29 01:12:09;;;;;;;2.87;2.03;;;23.60;49.30;25.00;100768.00;;;;5069250;28;20247;-43
2022/06/29 01:14:35;;;;;;;2.70;2.27;;;23.60;49.30;25.00;100771.00;;;;5069246;28;20193;-43
2022/06/29 01:17:00;;;;;;;2.37;1.90;;;23.70;49.40;25.00;100761.00;;;;5069422;28;20185;-43
2022/06/29 01:19:26;;;;;;;3.13;2.20;;;23.70;49.20;25.00;100772.00;;;;5068418;28;20162;-43
2022/06/29 01:21:52;;;;;;;3.03;2.00;;;23.70;49.40;25.00;100766.00;;;;5069990;28;20257;-43
2022/06/29 01:24:20;;;;;;;3.20;2.00;;;23.70;50.30;25.10;100762.00;;;;5068217;28;20655;-43
2022/06/29 01:26:45;;;;;;;2.77;2.07;;;23.80;50.70;25.10;100759.00;;;;5069213;28;20165;-43
2022/06/29 01:29:11;;;;;;;2.83;2.00;;;23.80;51.10;25.10;100762.00;;;;5068786;28;20247;-44
2022/06/29 01:31:37;;;;;;;2.10;1.90;;;23.80;52.00;25.10;100763.00;;;;5069142;28;20253;-43
2022/06/29 01:34:03;;;;;;;2.80;1.93;;;23.80;51.40;25.10;100762.00;;;;5069008;28;20224;-43
2022/06/29 01:36:28;;;;;;;3.00;2.00;;;23.80;51.60;25.10;100759.00;;;;5070197;28;20213;-43
2022/06/29 01:38:54;;;;;;;2.30;1.93;;;23.80;51.70;25.10;100755.00;;;;5070047;28;20201;-43
2022/06/29 01:41:20;;;;;;;2.20;2.00;;;23.80;51.90;25.10;100758.00;;;;5070528;28;20189;-44
2022/06/29 01:43:45;;;;;;;3.37;1.90;;;23.80;52.20;25.10;100757.00;;;;5070241;28;20550;-43
2022/06/29 01:46:11;;;;;;;2.30;2.03;;;23.80;52.40;25.10;100753.00;;;;5069462;28;20189;-41
2022/06/29 01:48:37;;;;;;;3.17;2.00;;;23.70;52.80;25.10;100758.00;;;;5068542;28;20173;-42
2022/06/29 01:51:03;;;;;;;3.53;1.93;;;23.70;52.90;25.10;100759.00;;;;5068600;28;20209;-42
2022/06/29 01:53:28;;;;;;;2.93;2.07;;;23.70;52.80;25.10;100756.00;;;;5068958;28;20260;-43
2022/06/29 01:55:54;;;;;;;3.60;2.10;;;23.70;52.90;25.10;100748.00;;;;5068702;28;20327;-43
2022/06/29 01:58:20;;;;;;;2.60;2.00;;;23.70;53.20;25.00;100752.00;;;;5068523;28;20182;-44
2022/06/29 02:00:46;;;;;;;3.23;2.23;;;23.70;53.20;25.00;100746.00;;;;5068312;28;20670;-43
2022/06/29 02:03:12;;;;;;;2.63;2.20;;;23.70;53.10;25.10;100746.00;;;;5068636;28;20266;-43
2022/06/29 02:05:37;;;;;;;2.67;2.33;;;23.80;53.30;25.00;100735.00;;;;5068567;28;20361;-42
2022/06/29 02:08:04;;;;;;;3.50;3.20;;;23.80;53.30;25.00;100748.00;;;;5066523;28;20638;-44
2022/06/29 02:10:30;;;;;;;3.20;2.90;;;23.80;53.30;25.00;100746.00;;;;5068291;28;20555;-43
2022/06/29 02:12:55;;;;;;;3.50;2.90;;;23.80;53.20;25.00;100731.00;;;;5068471;28;20672;-43
2022/06/29 02:15:23;;;;;;;3.57;2.40;;;23.80;53.10;25.00;100728.00;;;;5068467;28;20194;-43
2022/06/29 02:17:50;;;;;;;3.33;2.50;;;23.80;53.20;25.00;100735.00;;;;5067801;28;20707;-43
2022/06/29 02:20:16;;;;;;;3.20;2.30;;;23.80;53.30;25.00;100720.00;;;;5068583;28;20205;-43
2022/06/29 02:22:41;;;;;;;2.53;2.10;;;23.70;53.20;25.00;100726.00;;;;5067472;28;20540;-43
2022/06/29 02:25:08;;;;;;;3.37;2.30;;;23.80;53.30;25.00;100715.00;;;;5068492;28;20378;-43
2022/06/29 02:27:39;;;;;;;2.10;2.00;;;23.80;53.40;25.00;100717.00;;;;5072844;28;20223;-44
2022/06/29 02:30:06;;;;;;;2.40;2.20;;;23.70;53.20;24.90;100721.00;;;;5071056;28;20182;-44
2022/06/29 02:35:16;;;;;;;2.57;2.10;;;23.70;53.20;24.90;100715.00;;;;5068172;28;20219;-43
2022/06/29 02:37:42;;;;;;;2.40;2.20;;;23.70;53.30;24.90;100711.00;;;;5067818;28;20185;-43
2022/06/29 02:40:08;;;;;;;2.30;2.10;;;23.70;53.50;24.90;100717.00;;;;5067752;28;20215;-43
2022/06/29 02:42:34;;;;;;;2.33;2.13;;;23.70;53.40;24.90;100715.00;;;;5067850;28;20634;-44
2022/06/29 02:45:00;;;;;;;2.20;2.00;;;23.70;54.00;24.90;100727.00;;;;5067646;28;20273;-45
2022/06/29 02:47:27;;;;;;;3.10;1.90;;;23.70;53.50;24.90;100714.00;;;;5072342;28;20197;-45
2022/06/29 02:49:53;;;;;;;2.30;2.10;;;23.70;53.40;24.80;100724.00;;;;5075886;28;20181;-46
2022/06/29 02:52:19;;;;;;;2.20;2.00;;;23.70;53.50;24.80;100731.00;;;;5067719;28;20211;-43
2022/06/29 02:54:44;;;;;;;2.23;1.90;;;23.70;53.50;24.80;100718.00;;;;5067849;28;20209;-43
2022/06/29 02:57:10;;;;;;;2.30;2.00;;;23.60;53.50;24.80;100715.00;;;;5067286;28;20174;-44
2022/06/29 02:59:36;;;;;;;5.27;2.40;;;23.60;53.70;24.80;100714.00;;;;5067378;28;20169;-46
2022/06/29 03:02:02;;;;;;;2.47;2.07;;;23.60;54.40;24.80;100717.00;;;;5067510;28;20170;-43
2022/06/29 03:04:28;;;;;;;3.57;2.30;;;23.60;54.10;24.70;100724.00;;;;5067370;28;20698;-44
2022/06/29 03:06:54;;;;;;;3.17;2.00;;;23.60;53.90;24.70;100730.00;;;;5067335;28;20177;-43
2022/06/29 03:09:20;;;;;;;3.00;2.00;;;23.60;53.80;24.70;100721.00;;;;5065908;28;20586;-45
2022/06/29 03:11:45;;;;;;;2.77;2.27;;;23.60;53.70;24.70;100715.00;;;;5073679;28;20212;-45
2022/06/29 03:14:11;;;;;;;2.40;2.20;;;23.60;53.90;24.70;100710.00;;;;5090207;28;20229;-45
2022/06/29 03:16:37;;;;;;;2.27;2.00;;;23.60;53.90;24.70;100714.00;;;;5090156;28;20170;-44
2022/06/29 03:19:03;;;;;;;2.40;2.20;;;23.60;54.00;24.70;100711.00;;;;5067497;28;20192;-43
2022/06/29 03:21:29;;;;;;;2.30;1.90;;;23.50;53.80;24.60;100702.00;;;;5067354;28;20198;-42
2022/06/29 03:23:54;;;;;;;2.80;2.10;;;23.50;53.80;24.60;100704.00;;;;5067244;28;20261;-43
2022/06/29 03:26:20;;;;;;;3.10;2.40;;;23.50;53.90;24.60;100705.00;;;;5066970;28;20208;-44
2022/06/29 03:28:48;;;;;;;2.77;2.17;;;23.50;53.90;24.60;100711.00;;;;5067097;28;20177;-44
2022/06/29 03:31:13;;;;;;;4.43;1.93;;;23.50;54.10;24.60;100709.00;;;;5067180;28;20191;-43
2022/06/29 03:33:39;;;;;;;2.10;2.00;;;23.40;54.40;24.60;100711.00;;;;5068263;28;20255;-46
2022/06/29 03:36:05;;;;;;;2.00;1.90;;;23.50;54.30;24.50;100706.00;;;;5071516;28;20683;-43
2022/06/29 03:38:31;;;;;;;2.30;2.07;;;23.40;54.10;24.50;100696.00;;;;5071033;28;20181;-43
2022/06/29 03:40:57;;;;;;;2.70;2.30;;;23.40;54.30;24.50;100698.00;;;;5071250;28;20220;-43
2022/06/29 03:43:22;;;;;;;2.80;2.13;;;23.40;54.40;24.50;100685.00;;;;5071107;28;20197;-44
2022/06/29 03:45:48;;;;;;;2.97;2.20;;;23.40;54.50;24.40;100691.00;;;;5071011;28;20232;-45
2022/06/29 03:48:15;;;;;;;2.30;2.10;;;23.40;54.40;24.40;100692.00;;;;5069985;28;20309;-43
2022/06/29 03:50:41;;;;;;;3.47;2.33;;;23.40;54.40;24.40;100679.00;;;;5071831;28;20234;-43
2022/06/29 03:53:07;;;;;;;6.30;5.70;;;23.40;54.50;24.40;100688.00;;;;5070006;28;20268;-44
2022/06/29 03:55:32;;;;;;;4.47;3.93;;;23.40;54.50;24.40;100678.00;;;;5071068;28;20204;-44
2022/06/29 03:57:58;;;;;;;3.77;3.40;;;23.40;54.40;24.40;100679.00;;;;5070712;28;20177;-44
2022/06/29 04:00:24;;;;;;;3.07;2.80;;;23.30;54.90;24.40;100678.00;;;;5071033;28;20295;-42
2022/06/29 04:02:49;;;;;;;3.20;2.90;;;23.40;54.40;24.30;100677.00;;;;5070858;28;20643;-42
2022/06/29 04:05:15;;;;;;;3.20;2.57;;;23.40;54.40;24.30;100682.00;;;;5070139;28;20186;-44
2022/06/29 04:07:41;;;;;;;2.70;2.50;;;23.30;54.40;24.30;100679.00;;;;5076789;28;20181;-43
2022/06/29 04:10:07;;;;;;;2.80;2.37;;;23.30;54.50;24.30;100676.00;;;;5091255;28;20244;-43
2022/06/29 04:12:34;;;;;;;2.50;2.30;;;23.30;54.60;24.30;100677.00;;;;5091083;28;20171;-44
2022/06/29 04:15:00;;;;;;;2.73;2.30;;;23.30;54.40;24.30;100683.00;;;;5091125;28;20193;-43
2022/06/29 04:17:26;;;;;;;3.33;2.37;;;23.30;54.60;24.30;100682.00;;;;5090170;28;20230;-43
2022/06/29 04:19:52;;;;;;;2.93;2.20;;;23.30;54.50;24.30;100677.00;;;;5090554;28;20172;-45
2022/06/29 04:22:19;;;;;;;3.07;2.30;;;23.20;54.40;24.20;100667.00;;;;5090054;28;20169;-44
2022/06/29 04:24:45;;;;;;;2.53;2.30;;;23.30;54.50;24.20;100671.00;;;;5090639;28;20188;-44
2022/06/29 04:27:11;;;;;;;2.60;2.30;;;23.30;54.60;24.20;100664.00;;;;5090168;28;20257;-46
2022/06/29 04:29:37;;;;;;;2.60;2.40;;;23.30;54.70;24.20;100660.00;;;;5090557;28;20330;-43
2022/06/29 04:32:03;;;;;;;4.30;2.30;;;23.20;54.60;24.20;100665.00;;;;5090557;28;20173;-44
2022/06/29 04:34:29;;;;;;;3.83;2.10;;;23.20;54.50;24.20;100660.00;;;;5094159;28;20204;-42
2022/06/29 04:36:55;;;;;;;2.20;2.00;;;23.20;54.70;24.20;100666.00;;;;5093967;28;20205;-44
2022/06/29 04:39:20;;;;;;;2.73;2.53;;;23.20;55.00;24.20;100665.00;;;;5093485;28;20188;-42
2022/06/29 04:41:47;;;;;;;2.40;2.20;;;23.20;55.30;24.20;100670.00;;;;5094530;28;20199;-44
2022/06/29 04:44:13;;;;;;;2.37;2.17;;;23.10;55.30;24.20;100675.00;;;;5090165;28;20180;-45
2022/06/29 04:46:39;;;;;;;2.40;2.20;;;23.10;55.40;24.20;100672.00;;;;5089049;28;20173;-43
2022/06/29 04:49:04;;;;;;;3.03;2.00;;;23.10;55.00;24.10;100672.00;;;;5089836;28;20188;-43
2022/06/29 04:51:31;;;;;;;2.30;2.10;;;23.10;54.90;24.10;100676.00;;;;5089738;28;20207;-44
2022/06/29 04:53:58;;;;;;;2.70;2.40;;;23.10;54.90;24.10;100668.00;;;;5089582;28;20680;-43
2022/06/29 04:56:32;;;;;;;2.40;2.20;;;23.10;55.30;24.10;100669.00;;;;5089106;28;20209;-44
2022/06/29 04:58:58;;;;;;;3.20;2.20;;;23.10;55.40;24.10;100658.00;;;;5089868;28;20759;-43
2022/06/29 05:01:25;;;;;;;3.07;2.40;;;23.10;55.50;24.10;100663.00;;;;5089570;28;20197;-44
2022/06/29 05:03:52;;;;;;;3.00;2.33;;;23.00;55.10;24.00;100662.00;;;;5090249;28;20172;-43
2022/06/29 05:06:18;;;;;;;2.93;1.90;;;23.00;55.10;24.00;100656.00;;;;5089565;28;20203;-44
2022/06/29 05:08:43;;;;;;;3.13;2.30;;;23.10;55.30;24.00;100668.00;;;;5090092;28;20173;-43
2022/06/29 05:11:09;;;;;;;3.40;2.40;;;23.00;55.50;24.00;100671.00;;;;5089836;28;20153;-43
2022/06/29 05:13:35;;;;;;;2.30;2.10;;;23.00;56.00;24.00;100670.00;;;;5090013;28;20177;-42
2022/06/29 05:16:01;;;;;;;3.03;2.60;;;23.10;55.70;24.00;100671.00;;;;5090263;28;20192;-43
2022/06/29 05:18:28;;;;;;;3.63;2.20;;;23.10;55.50;24.00;100674.00;;;;5090178;28;20661;-43
2022/06/29 05:20:54;;;;;;;2.50;2.30;;;23.00;55.30;24.00;100675.00;;;;5089989;28;20236;-43
2022/06/29 05:23:20;;;;;;;2.37;2.17;;;23.00;55.50;24.00;100672.00;;;;5089491;28;20173;-43
2022/06/29 05:25:46;;;;;;;2.47;2.27;;;23.00;55.40;24.00;100678.00;;;;5089822;28;20184;-43
2022/06/29 05:28:11;;;;;;;5.63;2.20;;;23.00;55.60;23.90;100686.00;;;;5089479;28;20177;-44
2022/06/29 05:30:38;;;;;;;2.43;2.20;;;23.00;55.30;23.90;100681.00;;;;5089845;28;20752;-44
2022/06/29 05:33:04;;;;;;;2.57;2.20;;;23.00;55.00;23.90;100675.00;;;;5090013;28;20255;-43
2022/06/29 05:35:33;;;;;;;3.00;2.27;;;23.00;55.10;23.90;100668.00;;;;5088959;28;20845;-44
2022/06/29 05:38:02;;;;;;;3.67;2.20;;;23.00;55.00;23.90;100670.00;;;;5088925;28;20771;-44
2022/06/29 05:40:30;;;;;;;2.30;2.10;;;23.00;56.00;23.90;100667.00;;;;5087976;28;20200;-43
2022/06/29 05:42:57;;;;;;;3.30;2.30;;;22.90;55.40;23.90;100670.00;;;;5089437;28;20195;-43
2022/06/29 05:45:24;;;;;;;3.90;2.40;;;22.90;55.30;23.90;100666.00;;;;5089541;28;20188;-45
2022/06/29 05:47:52;;;;;;;2.20;1.97;;;22.90;55.30;23.80;100669.00;;;;5088535;28;20172;-42
2022/06/29 05:50:19;;;;;;;3.17;2.20;;;23.00;55.60;23.80;100661.00;;;;5089156;28;20660;-42
2022/06/29 05:52:45;;;;;;;2.20;2.00;;;23.00;55.70;23.80;100657.00;;;;5090287;28;20803;-42
2022/06/29 05:55:10;;;;;;;2.30;2.10;;;22.90;55.60;23.80;100666.00;;;;5089174;28;20196;-43
2022/06/29 05:57:36;;;;;;;2.33;2.10;;;22.90;56.30;23.80;100674.00;;;;5088149;28;20165;-43
2022/06/29 06:00:03;;;;;;;3.27;2.30;;;22.90;56.60;23.80;100672.00;;;;5104434;28;20269;-43
2022/06/29 06:02:29;;;;;;;2.50;2.30;;;22.90;56.10;23.80;100667.00;;;;5089307;28;20217;-44
2022/06/29 06:04:55;;;;;;;2.43;2.23;;;22.90;57.10;23.80;100668.00;;;;5088696;28;20653;-43
2022/06/29 06:07:21;;;;;;;2.40;2.20;;;22.90;56.60;23.60;100661.00;;;;5088297;28;20188;-43
2022/06/29 06:09:46;;;;;;;2.30;2.10;;;22.90;56.90;23.80;100656.00;;;;5093199;28;20595;-44
2022/06/29 06:12:12;;;;;;;2.30;2.10;;;22.80;56.30;23.70;100663.00;;;;5096299;28;20216;-44
2022/06/29 06:14:38;;;;;;;3.07;2.20;;;22.80;56.20;23.70;100660.00;;;;5089706;28;20181;-44
2022/06/29 06:17:04;;;;;;;2.00;1.90;;;22.80;56.20;23.60;100669.00;;;;5088261;28;20267;-46
2022/06/29 06:19:30;;;;;;;4.37;2.40;;;22.70;56.10;23.60;100660.00;;;;5088083;28;20161;-45
2022/06/29 06:21:55;;;;;;;3.33;2.20;;;22.80;56.20;23.60;100657.00;;;;5088135;28;20287;-43
2022/06/29 06:24:21;;;;;;;2.37;2.17;;;22.80;56.20;23.60;100658.00;;;;5088137;28;20177;-44
2022/06/29 06:26:47;;;;;;;2.57;2.30;;;22.80;56.20;23.60;100642.00;;;;5088057;28;20820;-43
2022/06/29 06:29:13;;;;;;;2.77;2.43;;;22.80;56.30;23.60;100648.00;;;;5088125;28;20244;-44
2022/06/29 06:31:38;;;;;;;2.93;2.20;;;22.80;56.30;23.60;100655.00;;;;5088377;28;20176;-43
2022/06/29 06:34:04;;;;;;;2.77;2.13;;;22.80;56.40;23.60;100649.00;;;;5102833;28;20219;-45
2022/06/29 06:36:30;;;;;;;2.30;2.10;;;22.80;56.20;23.60;100643.00;;;;5114261;28;20189;-44
2022/06/29 06:38:56;;;;;;;2.50;2.30;;;22.80;56.30;23.60;100661.00;;;;5104517;28;20544;-45
2022/06/29 06:41:21;;;;;;;2.97;2.50;;;22.80;56.60;23.70;100650.00;;;;5077342;28;20284;-44
2022/06/29 06:43:49;;;;;;;3.50;2.53;;;22.80;56.90;23.60;100651.00;;;;5083690;28;20267;-44
2022/06/29 06:46:15;;;;;;;4.17;2.37;;;22.80;57.20;23.60;100663.00;;;;5081390;28;20184;-44
2022/06/29 06:48:42;;;;;;;2.40;2.20;;;22.80;57.20;23.60;100644.00;;;;5073727;28;20180;-45
2022/06/29 06:51:08;;;;;;;3.03;2.30;;;22.70;57.00;23.60;100647.00;;;;5078201;28;20177;-45
2022/06/29 06:53:34;;;;;;;2.87;2.27;;;22.70;57.00;23.50;100648.00;;;;5074645;28;20285;-43
2022/06/29 06:55:59;;;;;;;2.50;2.20;;;22.80;57.10;23.50;100649.00;;;;5083639;28;20206;-43
2022/06/29 06:58:25;;;;;;;3.67;2.43;;;22.70;57.20;23.60;100654.00;;;;5075797;28;20276;-44
2022/06/29 07:00:51;;;;;;;2.73;2.30;;;22.70;57.60;23.60;100657.00;;;;5076083;28;20288;-43
2022/06/29 07:03:17;;;;;;;3.13;2.50;;;22.70;58.30;23.60;100652.00;;;;5077151;28;20199;-44
2022/06/29 07:05:42;;;;;;;3.20;2.50;;;22.70;58.70;23.60;100655.00;;;;5076598;28;22418;-45
2022/06/29 07:08:08;;;;;;;2.60;2.40;;;22.70;58.40;23.60;100649.00;;;;5085179;28;20179;-44
2022/06/29 07:10:34;;;;;;;2.50;2.30;;;22.70;58.10;23.60;100665.00;;;;5070250;28;20245;-44
2022/06/29 07:13:00;;;;;;;2.90;2.30;;;22.70;58.20;23.60;100648.00;;;;5074780;28;20208;-44
2022/06/29 07:15:25;;;;;;;3.17;2.40;;;22.70;58.40;23.60;100657.00;;;;5080632;28;20215;-45
2022/06/29 07:17:51;;;;;;;2.57;2.30;;;22.70;58.70;23.60;100654.00;;;;5071786;28;20183;-43
2022/06/29 07:20:17;;;;;;;3.33;2.30;;;22.70;58.50;23.50;100649.00;;;;5082649;28;20630;-45
2022/06/29 07:22:43;;;;;;;2.60;2.40;;;22.60;58.10;23.50;100644.00;;;;5080409;28;20192;-44
2022/06/29 07:25:08;;;;;;;3.77;2.53;;;22.70;58.10;23.50;100646.00;;;;5076803;28;20203;-43
2022/06/29 07:27:34;;;;;;;3.43;2.20;;;22.60;57.90;23.50;100648.00;;;;5086404;28;20211;-44
2022/06/29 07:30:01;;;;;;;2.90;2.57;;;22.60;57.90;23.50;100652.00;;;;5086007;28;20176;-45
2022/06/29 07:32:27;;;;;;;3.67;2.57;;;22.50;57.90;23.50;100649.00;;;;5080990;28;20172;-46
2022/06/29 07:34:52;;;;;;;3.10;2.40;;;22.50;57.90;23.50;100651.00;;;;5071302;28;20196;-43
2022/06/29 07:37:18;;;;;;;3.47;2.37;;;22.50;58.00;23.50;100656.00;;;;5069893;28;20184;-43
2022/06/29 07:39:44;;;;;;;3.37;2.40;;;22.50;58.00;23.50;100656.00;;;;5075848;28;20204;-44
2022/06/29 07:42:09;;;;;;;3.50;2.57;;;22.50;57.80;23.50;100646.00;;;;5078685;28;20664;-43
2022/06/29 07:44:35;;;;;;;3.07;2.67;;;22.50;58.40;23.50;100644.00;;;;5073622;28;20637;-44
2022/06/29 07:47:01;;;;;;;3.17;2.67;;;22.60;58.60;23.50;100648.00;;;;5079445;28;20645;-44
2022/06/29 07:49:27;;;;;;;2.67;2.43;;;22.60;58.70;23.50;100654.00;;;;5065583;28;20792;-44
2022/06/29 07:51:53;;;;;;;3.30;2.63;;;22.60;58.40;23.50;100660.00;;;;5076275;28;20226;-44
2022/06/29 07:54:19;;;;;;;3.57;2.43;;;22.50;58.30;23.50;100654.00;;;;5072453;28;20230;-44
2022/06/29 07:56:45;;;;;;;3.17;2.77;;;22.50;58.30;23.50;100647.00;;;;5074444;28;20607;-43
2022/06/29 07:59:10;;;;;;;3.27;2.80;;;22.60;58.70;23.50;100648.00;;;;5071482;28;20181;-44
2022/06/29 08:01:36;;;;;;;3.70;2.77;;;22.60;58.80;23.50;100649.00;;;;5082595;28;20197;-45
2022/06/29 08:04:02;;;;;;;3.33;2.63;;;22.60;58.70;23.50;100651.00;;;;5075849;28;20177;-44
2022/06/29 08:06:28;;;;;;;3.03;2.70;;;22.50;58.60;23.50;100649.00;;;;5076217;28;20973;-43
2022/06/29 08:08:54;;;;;;;4.50;2.67;;;22.50;58.60;23.50;100662.00;;;;5072647;28;20177;-44
2022/06/29 08:11:20;;;;;;;3.67;2.70;;;22.50;58.50;23.50;100659.00;;;;5082460;28;20184;-45
2022/06/29 08:13:46;;;;;;;4.47;2.40;;;22.50;58.40;23.50;100666.00;;;;5079475;28;20179;-44
2022/06/29 08:16:11;;;;;;;2.80;2.60;;;22.50;58.30;23.50;100653.00;;;;5084269;28;20204;-43
2022/06/29 08:18:37;;;;;;;3.37;2.50;;;22.50;58.30;23.50;100653.00;;;;5070661;28;20252;-44
2022/06/29 08:21:03;;;;;;;2.60;2.30;;;22.50;58.30;23.50;100643.00;;;;5084309;28;20242;-44
2022/06/29 08:23:30;;;;;;;2.90;2.60;;;22.50;58.20;23.50;100657.00;;;;5082357;28;20184;-42
2022/06/29 08:25:57;;;;;;;2.87;2.60;;;22.50;58.10;23.50;100652.00;;;;5084632;28;20200;-43
2022/06/29 08:28:26;;;;;;;2.70;2.50;;;22.50;58.20;23.50;100652.00;;;;5087694;28;20172;-43
2022/06/29 08:30:53;;;;;;;2.60;2.40;;;22.50;58.00;23.50;100649.00;;;;5090496;28;20275;-45
2022/06/29 08:33:21;;;;;;;2.80;2.50;;;22.50;58.00;23.60;100657.00;;;;5084778;28;20180;-44
2022/06/29 08:35:48;;;;;;;2.80;2.60;;;22.50;58.30;23.50;100655.00;;;;5085509;28;20731;-44
2022/06/29 08:38:14;;;;;;;3.40;2.60;;;22.40;58.40;23.50;100647.00;;;;5087221;28;20559;-44
2022/06/29 08:40:45;;;;;;;3.03;2.53;;;22.50;58.40;23.50;100648.00;;;;5073568;28;20215;-44
2022/06/29 08:43:12;;;;;;;3.07;2.77;;;22.50;58.30;23.60;100648.00;;;;5081877;28;20327;-44
2022/06/29 08:45:45;;;;;;;3.17;2.80;;;22.50;58.30;23.60;100655.00;;;;5083482;28;20201;-45
2022/06/29 08:48:12;;;;;;;2.80;2.60;;;22.50;58.30;23.50;100656.00;;;;5076780;28;20180;-46
2022/06/29 08:50:38;;;;;;;3.93;2.80;;;22.50;58.10;23.60;100651.00;;;;5084635;28;20491;-44
2022/06/29 08:53:06;;;;;;;2.73;2.53;;;22.50;58.00;23.60;100649.00;;;;5098828;27;20196;-44
2022/06/29 08:55:38;;;;;;;3.00;2.37;;;22.50;58.10;23.50;100651.00;;;;5094161;28;20216;-43
2022/06/29 08:58:05;;;;;;;2.93;2.60;;;22.50;58.20;23.60;100656.00;;;;5065840;28;20173;-44
2022/06/29 09:00:32;;;;;;;3.00;2.70;;;22.60;58.60;23.60;100661.00;;;;5087559;28;20233;-45
2022/06/29 09:02:58;;;;;;;3.67;2.90;;;22.60;58.40;23.60;100648.00;;;;5070901;28;20739;-44
2022/06/29 09:05:23;;;;;;;2.93;2.60;;;22.70;59.10;23.60;100643.00;;;;5058021;28;20224;-42
2022/06/29 09:07:49;;;;;;;3.70;2.70;;;22.70;58.70;23.70;100652.00;;;;5078875;28;20227;-43
2022/06/29 09:10:18;;;;;;;4.60;2.53;;;22.70;58.60;23.70;100655.00;;;;5083499;28;20183;-45
2022/06/29 09:12:49;;;;;;;3.57;2.73;;;22.70;58.50;23.70;100662.00;;;;5079989;28;20245;-45
2022/06/29 09:15:16;;;;;;;2.63;2.43;;;22.70;58.60;23.70;100663.00;;;;5085173;28;20200;-44
2022/06/29 09:17:42;;;;;;;3.10;2.80;;;22.70;58.90;23.70;100672.00;;;;5088233;28;20177;-45
2022/06/29 09:20:09;;;;;;;3.07;2.70;;;22.70;58.90;23.70;100659.00;;;;5085049;28;20298;-45
2022/06/29 09:22:43;;;;;;;2.97;2.67;;;22.70;59.30;23.80;100666.00;;;;5102635;27;20177;-44
2022/06/29 09:25:26;;;;;;;2.70;2.50;;;22.70;58.90;23.80;100668.00;;;;5073584;28;20206;-43
2022/06/29 09:27:55;;;;;;;5.10;2.83;;;22.70;58.90;23.80;100656.00;;;;5078080;28;20203;-44
2022/06/29 09:30:28;;;;;;;4.10;2.90;;;22.70;58.90;23.80;100659.00;;;;5075757;28;20192;-44
2022/06/29 09:33:12;;;;;;;4.07;2.87;;;22.70;59.00;23.80;100659.00;;;;5083163;28;20168;-42
2022/06/29 09:35:39;;;;;;;4.97;2.50;;;22.80;59.00;23.70;100661.00;;;;5086780;28;20284;-44
2022/06/29 09:38:24;;;;;;;4.23;2.90;;;22.70;59.40;23.80;100664.00;;;;5087252;28;20862;-43
2022/06/29 09:41:09;;;;;;;3.37;2.80;;;22.70;58.80;23.70;100658.00;;;;5084247;28;20205;-44
2022/06/29 09:43:37;;;;;;;6.00;3.00;;;22.70;59.00;23.70;100657.00;;;;5082837;28;20169;-44
2022/06/29 09:46:03;;;;;;;6.60;2.70;;;22.80;59.00;23.70;100663.00;;;;5077073;28;20286;-44
2022/06/29 09:48:31;;;;;;;4.60;2.73;;;22.70;58.90;23.70;100663.00;;;;5085454;28;20180;-45
2022/06/29 09:50:57;;;;;;;5.07;3.00;;;22.80;59.00;23.80;100664.00;;;;5076993;28;20322;-48
2022/06/29 09:53:37;;;;;;;4.47;2.70;;;22.80;59.00;23.80;100657.00;;;;5081685;28;20256;-46
2022/06/29 09:56:06;;;;;;;3.63;2.63;;;22.80;59.00;23.80;100665.00;;;;5078163;28;20764;-43
2022/06/29 09:58:47;;;;;;;6.77;3.07;;;22.80;59.00;23.80;100664.00;;;;5105086;28;20184;-43
2022/06/29 10:03:58;;;;;;;4.40;2.60;;;22.80;59.20;23.80;100651.00;;;;5065429;28;20175;-45
2022/06/29 10:06:24;;;;;;;5.40;2.67;;;22.80;59.80;23.80;100652.00;;;;5095181;27;20196;-44
2022/06/29 10:08:54;;;;;;;3.50;2.77;;;22.80;59.40;23.80;100641.00;;;;5098923;27;20653;-45
2022/06/29 10:14:44;;;;;;;4.13;2.80;;;22.90;59.10;23.80;100645.00;;;;5076848;28;20207;-44
2022/06/29 10:17:28;;;;;;;4.43;2.80;;;22.80;58.90;23.80;100644.00;;;;5076516;28;20177;-43
2022/06/29 10:20:31;;;;;;;3.17;2.80;;;22.80;59.60;23.80;100645.00;;;;5073429;28;20817;-43
2022/06/29 10:22:56;;;;;;;4.40;2.93;;;22.80;59.00;23.80;100644.00;;;;5086051;28;20223;-44
2022/06/29 10:25:28;;;;;;;3.77;2.70;;;22.80;59.00;23.80;100645.00;;;;5074145;28;20571;-44
2022/06/29 10:28:18;;;;;;;3.30;2.80;;;22.90;59.20;23.80;100645.00;;;;5091204;27;20181;-44
2022/06/29 10:30:44;;;;;;;3.27;2.70;;;22.90;59.10;23.80;100647.00;;;;5072098;28;20176;-48
2022/06/29 10:33:29;;;;;;;3.20;2.90;;;22.80;59.00;23.90;100648.00;;;;5084162;28;20704;-44
2022/06/29 10:36:06;;;;;;;2.87;2.67;;;22.90;59.10;23.90;100641.00;;;;5077025;27;20224;-45
2022/06/29 10:38:53;;;;;;;2.90;2.67;;;22.90;59.10;23.90;100639.00;;;;5081353;28;20172;-44
2022/06/29 10:44:03;;;;;;;3.20;2.90;;;22.90;59.30;23.90;100640.00;;;;5071771;28;20953;-44
2022/06/29 10:47:07;;;;;;;3.63;2.73;;;22.90;59.10;23.90;100646.00;;;;5079044;28;20201;-43
2022/06/29 10:49:33;;;;;;;3.23;2.83;;;22.90;59.10;23.90;100641.00;;;;5028628;28;20200;-44
2022/06/29 10:51:59;;;;;;;2.93;2.73;;;22.90;58.90;24.00;100646.00;;;;5066500;28;20188;-44
2022/06/29 10:54:32;;;;;;;3.40;3.10;;;22.90;58.90;24.00;100636.00;;;;5034337;28;20181;-44
2022/06/29 10:56:58;;;;;;;3.40;3.10;;;23.00;58.90;24.00;100652.00;;;;5073726;28;20180;-45
2022/06/29 10:59:37;;;;;;;3.83;2.73;;;23.00;58.90;24.00;100637.00;;;;5066743;28;20199;-45